TAF Text Data
IDs:
Format:
Raw Decoded Include METAR

Data at: 1040 UTC 07 Dec 2022

KDHN 071014Z 0710/0806 00000KT 1/4SM FG OVC002
  FM071400 VRB03KT 3SM BR OVC008
  FM071700 24004KT P6SM BKN020
  FM072000 26005KT P6SM SCT050